createdAt,value
2019-03-21T00:00:57.490Z,100644.77
2019-03-21T00:03:24.909Z,100648.98
2019-03-21T00:05:52.204Z,100653.91
2019-03-21T00:08:19.485Z,100651.25
2019-03-21T00:11:13.459Z,100651.16
2019-03-21T00:13:40.864Z,100651.16
2019-03-21T00:16:10.474Z,100648.45
2019-03-21T00:18:37.748Z,100671.22
2019-03-21T00:21:05.040Z,100665.52
2019-03-21T00:23:32.439Z,100661.20
2019-03-21T00:25:59.698Z,100649.81
2019-03-21T00:28:26.945Z,100649.81
2019-03-21T00:30:54.228Z,100654.33
2019-03-21T00:33:21.522Z,100654.70
2019-03-21T00:35:48.804Z,100654.70
2019-03-21T00:38:16.158Z,100658.61
2019-03-21T00:40:44.137Z,100659.48
2019-03-21T00:43:12.223Z,100655.18
2019-03-21T00:45:39.502Z,100652.56
2019-03-21T00:48:09.411Z,100657.28
2019-03-21T00:50:36.699Z,100651.56
2019-03-21T00:53:04.053Z,100655.89
2019-03-21T00:55:32.390Z,100646.96
2019-03-21T00:57:59.659Z,100644.47
2019-03-21T01:00:32.954Z,100644.47
2019-03-21T01:03:00.195Z,100658.06
2019-03-21T01:05:29.819Z,100648.20
2019-03-21T01:07:57.191Z,100656.16
2019-03-21T01:10:24.687Z,100644.03
2019-03-21T01:12:51.996Z,100654.36
2019-03-21T01:15:19.279Z,100655.67
2019-03-21T01:17:46.552Z,100642.30
2019-03-21T01:20:17.044Z,100631.59
2019-03-21T01:22:44.384Z,100631.48
2019-03-21T01:25:15.391Z,100631.48
2019-03-21T01:27:43.551Z,100616.10
2019-03-21T01:30:13.907Z,100616.10
2019-03-21T01:32:41.124Z,100628.45
2019-03-21T01:35:08.446Z,100628.34
2019-03-21T01:37:35.952Z,100627.86
2019-03-21T01:40:05.730Z,100623.82
2019-03-21T01:42:34.690Z,100622.33
2019-03-21T01:45:01.981Z,100616.10
2019-03-21T01:47:29.234Z,100616.59
2019-03-21T01:49:56.512Z,100617.11
2019-03-21T01:52:23.831Z,100667.77
2019-03-21T01:54:51.100Z,100621.96
2019-03-21T01:57:18.792Z,100622.15
2019-03-21T01:59:46.030Z,100639.58
2019-03-21T02:02:13.316Z,100625.06
2019-03-21T02:04:40.697Z,100614.50
2019-03-21T02:07:07.976Z,100617.63
2019-03-21T02:09:35.400Z,100596.73
2019-03-21T02:12:02.781Z,100596.73
2019-03-21T02:14:30.050Z,100610.84
2019-03-21T02:16:57.408Z,100624.23
2019-03-21T02:19:24.684Z,100608.53
2019-03-21T02:21:51.989Z,100610.50
2019-03-21T02:24:20.203Z,100613.37
2019-03-21T02:26:47.774Z,100618.17
2019-03-21T02:29:15.173Z,100602.51
2019-03-21T02:31:42.449Z,100607.80
2019-03-21T02:34:09.682Z,100608.01
2019-03-21T02:36:36.989Z,100625.46
2019-03-21T02:39:06.102Z,100608.88
2019-03-21T02:41:33.712Z,100597.86
2019-03-21T02:44:00.937Z,100612.00
2019-03-21T02:46:28.203Z,100608.70
2019-03-21T02:48:55.996Z,100608.16
2019-03-21T02:51:23.331Z,100603.99
2019-03-21T02:53:50.974Z,100605.03
2019-03-21T02:56:18.740Z,100599.84
2019-03-21T02:58:46.019Z,100606.52
2019-03-21T03:01:13.641Z,100603.78
2019-03-21T03:03:41.108Z,100602.97
2019-03-21T03:06:08.427Z,100602.33
2019-03-21T03:08:35.696Z,100600.17
2019-03-21T03:11:03.638Z,100600.17
2019-03-21T03:13:30.908Z,100626.44
2019-03-21T03:16:00.327Z,100616.51
2019-03-21T03:18:27.879Z,100621.80
2019-03-21T03:20:55.550Z,100617.28
2019-03-21T03:23:22.789Z,100614.20
2019-03-21T03:25:51.180Z,100613.41
2019-03-21T03:28:20.666Z,100610.97
2019-03-21T03:30:48.157Z,100616.67
2019-03-21T03:33:15.484Z,100614.06
2019-03-21T03:35:42.765Z,100631.95
2019-03-21T03:38:10.029Z,100621.36
2019-03-21T03:40:40.423Z,100635.89
2019-03-21T03:43:08.303Z,100629.08
2019-03-21T03:45:37.970Z,100621.95
2019-03-21T03:48:04.850Z,100629.26
2019-03-21T03:50:32.272Z,100630.86
2019-03-21T03:52:59.578Z,100628.86
2019-03-21T03:55:26.895Z,100630.33
2019-03-21T03:57:55.646Z,100633.57
2019-03-21T04:00:23.143Z,100626.41
2019-03-21T04:02:51.106Z,100626.67
2019-03-21T04:05:18.555Z,100620.47
2019-03-21T04:07:45.858Z,100622.28
2019-03-21T04:10:16.241Z,100631.29
2019-03-21T04:12:43.638Z,100639.47
2019-03-21T04:15:11.145Z,100632.12
2019-03-21T04:17:38.384Z,100626.94
2019-03-21T04:20:07.709Z,100625.11
2019-03-21T04:22:34.963Z,100630.66
2019-03-21T04:25:02.362Z,100632.00
2019-03-21T04:27:29.630Z,100628.73
2019-03-21T04:29:56.860Z,100627.09
2019-03-21T04:32:24.132Z,100625.11
2019-03-21T04:34:51.467Z,100628.34
2019-03-21T04:37:19.100Z,100616.64
2019-03-21T04:39:46.479Z,100622.97
2019-03-21T04:42:13.737Z,100618.57
2019-03-21T04:44:41.167Z,100623.83
2019-03-21T04:47:08.417Z,100621.86
2019-03-21T04:49:35.815Z,100619.09
2019-03-21T04:52:03.866Z,100623.83
2019-03-21T04:54:31.132Z,100614.68
2019-03-21T04:56:58.388Z,100620.23
2019-03-21T04:59:25.641Z,100626.08
2019-03-21T05:01:52.886Z,100634.23
2019-03-21T05:04:20.134Z,100621.00
2019-03-21T05:06:47.708Z,100619.55
2019-03-21T05:09:17.587Z,100629.02
2019-03-21T05:11:44.952Z,100630.52
2019-03-21T05:14:13.387Z,100623.86
2019-03-21T05:16:40.667Z,100628.62
2019-03-21T05:19:08.029Z,100641.78
2019-03-21T05:21:35.307Z,100633.14
2019-03-21T05:24:02.821Z,100639.19
2019-03-21T05:26:30.079Z,100636.91
2019-03-21T05:28:57.350Z,100641.93
2019-03-21T05:31:27.857Z,100642.59
2019-03-21T05:33:55.210Z,100698.59
2019-03-21T05:36:22.506Z,100647.56
2019-03-21T05:38:49.777Z,100648.77
2019-03-21T05:41:17.053Z,100645.34
2019-03-21T05:43:48.101Z,100656.11
2019-03-21T05:46:26.036Z,100645.06
2019-03-21T05:48:48.468Z,100655.50
2019-03-21T05:51:18.074Z,100652.84
2019-03-21T05:53:46.132Z,100662.47
2019-03-21T05:56:13.439Z,100651.72
2019-03-21T05:58:40.712Z,100664.23
2019-03-21T06:01:09.298Z,100663.45
2019-03-21T06:03:49.577Z,100662.00
2019-03-21T06:06:23.882Z,100673.37
2019-03-21T06:08:51.302Z,100660.02
2019-03-21T06:11:18.587Z,100714.80
2019-03-21T06:13:45.971Z,100678.44
2019-03-21T06:16:13.333Z,100661.34
2019-03-21T06:19:31.607Z,100686.14
2019-03-21T06:22:17.046Z,100678.31
2019-03-21T06:25:10.490Z,100668.70
2019-03-21T06:27:37.780Z,100668.52
2019-03-21T06:30:07.040Z,100659.86
2019-03-21T06:32:34.311Z,100677.61
2019-03-21T06:35:03.620Z,100662.12
2019-03-21T06:37:30.887Z,100677.09
2019-03-21T06:40:01.033Z,100724.53
2019-03-21T06:42:28.429Z,100674.64
2019-03-21T06:44:55.814Z,100671.20
2019-03-21T06:47:23.121Z,100672.14
2019-03-21T06:49:50.631Z,100670.04
2019-03-21T06:52:23.408Z,100675.58
2019-03-21T06:54:50.907Z,100675.38
2019-03-21T06:57:18.533Z,100674.87
2019-03-21T06:59:45.831Z,100671.05
2019-03-21T07:02:13.106Z,100669.51
2019-03-21T07:04:43.801Z,100673.98
2019-03-21T07:07:11.307Z,100676.21
2019-03-21T07:09:38.607Z,100673.78
2019-03-21T07:12:09.155Z,100678.77
2019-03-21T07:14:36.391Z,100674.89
2019-03-21T07:17:05.651Z,100669.30
2019-03-21T07:19:35.230Z,100669.30
2019-03-21T07:22:02.508Z,100680.24
2019-03-21T07:24:30.171Z,100676.98
2019-03-21T07:26:57.452Z,100683.05
2019-03-21T07:29:24.698Z,100676.03
2019-03-21T07:31:52.051Z,100667.40
2019-03-21T07:34:19.345Z,100667.40
2019-03-21T07:36:48.231Z,100673.00
2019-03-21T07:39:15.505Z,100671.78
2019-03-21T07:41:42.878Z,100674.00
2019-03-21T07:44:10.130Z,100673.65
2019-03-21T07:46:37.445Z,100707.23
2019-03-21T07:49:04.759Z,100659.94
2019-03-21T07:51:32.031Z,100659.94
2019-03-21T07:53:59.715Z,100653.87
2019-03-21T07:56:27.147Z,100653.87
2019-03-21T07:58:54.541Z,100660.19
2019-03-21T08:01:21.832Z,100655.16
2019-03-21T08:03:49.151Z,100655.16
2019-03-21T08:06:16.529Z,100664.69
2019-03-21T08:08:43.798Z,100645.23
2019-03-21T08:11:18.435Z,100645.23
2019-03-21T08:13:46.108Z,100644.33
2019-03-21T08:16:13.381Z,100644.33
2019-03-21T08:18:45.192Z,100642.47
2019-03-21T08:21:13.097Z,100634.76
2019-03-21T08:23:40.475Z,100636.26
2019-03-21T08:26:07.921Z,100633.52
2019-03-21T08:28:35.814Z,100633.52
2019-03-21T08:31:15.997Z,100628.69
2019-03-21T08:33:44.150Z,100628.69
2019-03-21T08:36:16.827Z,100630.72
2019-03-21T08:38:44.161Z,100630.72
2019-03-21T08:41:13.465Z,100630.59
2019-03-21T08:43:40.941Z,100640.71
2019-03-21T08:46:08.647Z,100632.09
2019-03-21T08:48:36.047Z,100632.34
2019-03-21T08:51:08.092Z,100631.39
2019-03-21T08:53:32.644Z,100630.22
2019-03-21T08:55:59.908Z,100635.43
2019-03-21T08:58:27.229Z,100637.37
2019-03-21T09:00:54.520Z,100624.30
2019-03-21T09:03:21.775Z,100619.25
2019-03-21T09:05:51.742Z,100616.73
2019-03-21T09:08:19.054Z,100620.59
2019-03-21T09:10:46.347Z,100618.66
2019-03-21T09:13:13.847Z,100606.11
2019-03-21T09:15:41.082Z,100609.52
2019-03-21T09:18:08.413Z,100601.67
2019-03-21T09:20:35.798Z,100608.41
2019-03-21T09:23:03.118Z,100603.56
2019-03-21T09:25:30.341Z,100602.39
2019-03-21T09:28:02.469Z,100598.95
2019-03-21T09:30:26.745Z,100606.02
2019-03-21T09:32:56.030Z,100604.98
2019-03-21T09:35:23.341Z,100609.50
2019-03-21T09:37:52.669Z,100605.27
2019-03-21T09:40:19.932Z,100601.13
2019-03-21T09:42:47.232Z,100599.84
2019-03-21T09:45:14.486Z,100602.89
2019-03-21T09:47:43.701Z,100597.50
2019-03-21T09:50:14.980Z,100599.73
2019-03-21T09:52:44.127Z,100598.36
2019-03-21T09:55:11.480Z,100608.41
2019-03-21T09:57:38.767Z,100596.37
2019-03-21T10:00:06.163Z,100601.89
2019-03-21T10:02:33.513Z,100590.56
2019-03-21T10:05:00.756Z,100597.07
2019-03-21T10:07:28.017Z,100598.48
2019-03-21T10:09:55.323Z,100584.33
2019-03-21T10:12:22.719Z,100595.52
2019-03-21T10:14:50.013Z,100582.77
2019-03-21T10:17:17.285Z,100576.00
2019-03-21T10:19:44.510Z,100582.85
2019-03-21T10:22:11.824Z,100579.20
2019-03-21T10:24:41.388Z,100575.52
2019-03-21T10:27:08.675Z,100570.64
2019-03-21T10:29:35.959Z,100585.52
2019-03-21T10:32:13.975Z,100568.48
2019-03-21T10:34:32.840Z,100568.34
2019-03-21T10:37:00.469Z,100565.53
2019-03-21T10:39:27.868Z,100565.89
2019-03-21T10:41:55.352Z,100566.20
2019-03-21T10:44:27.057Z,100559.78
2019-03-21T10:46:54.336Z,100554.73
2019-03-21T10:49:21.813Z,100556.81
2019-03-21T10:51:54.792Z,100548.12
2019-03-21T10:54:18.434Z,100555.50
2019-03-21T10:56:46.015Z,100555.37
2019-03-21T10:59:13.448Z,100540.30
2019-03-21T11:01:40.929Z,100545.02
2019-03-21T11:04:08.662Z,100544.96
2019-03-21T11:06:36.045Z,100540.50
2019-03-21T11:09:07.060Z,100545.67
2019-03-21T11:11:34.292Z,100553.73
2019-03-21T11:14:03.030Z,100534.75
2019-03-21T11:16:31.492Z,100540.62
2019-03-21T11:18:59.033Z,100536.07
2019-03-21T11:21:26.497Z,100536.14
2019-03-21T11:23:54.018Z,100531.20
2019-03-21T11:26:21.588Z,100529.62
2019-03-21T11:28:48.931Z,100527.11
2019-03-21T11:31:16.210Z,100521.33
2019-03-21T11:33:43.592Z,100517.30
2019-03-21T11:36:10.821Z,100524.30
2019-03-21T11:38:39.998Z,100511.25
2019-03-21T11:41:07.260Z,100519.45
2019-03-21T11:43:34.557Z,100514.52
2019-03-21T11:46:01.938Z,100522.38
2019-03-21T11:48:32.178Z,100514.09
2019-03-21T11:51:02.797Z,100512.03
2019-03-21T11:53:30.036Z,100510.44
2019-03-21T11:55:57.451Z,100513.18
2019-03-21T11:58:24.841Z,100502.83
2019-03-21T12:00:54.586Z,100507.39
2019-03-21T12:03:24.223Z,100501.63
2019-03-21T12:05:51.236Z,100499.98
2019-03-21T12:08:18.509Z,100505.94
2019-03-21T12:10:45.843Z,100504.62
2019-03-21T12:13:13.363Z,100498.25
2019-03-21T12:15:43.391Z,100501.80
2019-03-21T12:18:10.654Z,100486.33
2019-03-21T12:20:40.732Z,100478.02
2019-03-21T12:23:08.082Z,100480.23
2019-03-21T12:25:35.820Z,100484.84
2019-03-21T12:28:03.145Z,100467.25
2019-03-21T12:30:38.730Z,100473.97
2019-03-21T12:33:08.111Z,100470.27
2019-03-21T12:35:35.502Z,100458.53
2019-03-21T12:38:03.256Z,100466.88
2019-03-21T12:40:30.739Z,100459.97
2019-03-21T12:43:00.937Z,100463.44
2019-03-21T12:45:29.489Z,100467.46
2019-03-21T12:47:59.317Z,100456.41
2019-03-21T12:50:28.813Z,100453.45
2019-03-21T12:52:55.988Z,100453.81
2019-03-21T12:55:37.400Z,100479.17
2019-03-21T12:58:04.711Z,100451.88
2019-03-21T13:00:42.126Z,100482.02
2019-03-21T13:03:09.966Z,100444.50
2019-03-21T13:05:37.718Z,100441.83
2019-03-21T13:08:05.087Z,100439.70
2019-03-21T13:10:32.386Z,100290.44
2019-03-21T13:13:01.908Z,100435.15
2019-03-21T13:15:30.378Z,100429.53
2019-03-21T13:18:00.241Z,100429.24
2019-03-21T13:20:27.306Z,100417.97
2019-03-21T13:22:54.591Z,100434.89
2019-03-21T13:25:21.903Z,100420.20
2019-03-21T13:27:51.724Z,100421.27
2019-03-21T13:30:19.029Z,100421.25
2019-03-21T13:32:48.975Z,100425.80
2019-03-21T13:35:16.085Z,100415.39
2019-03-21T13:37:43.588Z,100438.03
2019-03-21T13:40:10.980Z,100405.00
2019-03-21T13:42:38.344Z,100401.31
2019-03-21T13:45:05.962Z,100394.48
2019-03-21T13:47:33.216Z,100393.34
2019-03-21T13:50:02.736Z,100395.01
2019-03-21T13:52:34.378Z,100383.39
2019-03-21T13:55:04.339Z,100388.58
2019-03-21T13:57:32.150Z,100391.70
2019-03-21T13:59:59.744Z,100385.31
2019-03-21T14:02:27.104Z,100384.32
2019-03-21T14:04:57.194Z,100383.42
2019-03-21T14:07:34.684Z,100382.83
2019-03-21T14:10:02.406Z,100406.09
2019-03-21T14:12:29.850Z,100374.34
2019-03-21T14:15:08.236Z,100371.88
2019-03-21T14:17:36.277Z,100375.41
2019-03-21T14:20:04.590Z,100411.84
2019-03-21T14:22:32.226Z,100373.07
2019-03-21T14:24:59.577Z,100372.95
2019-03-21T14:27:26.851Z,100368.63
2019-03-21T14:30:01.228Z,100368.32
2019-03-21T14:32:23.701Z,100367.40
2019-03-21T14:34:51.006Z,100364.02
2019-03-21T14:37:19.516Z,100355.69
2019-03-21T14:39:46.814Z,100357.85
2019-03-21T14:42:16.506Z,100351.00
2019-03-21T14:44:48.197Z,100352.56
2019-03-21T14:47:15.015Z,100345.66
2019-03-21T14:49:42.289Z,100357.31
2019-03-21T14:52:09.601Z,100352.91
2019-03-21T14:54:39.717Z,100349.83
2019-03-21T14:57:12.179Z,100339.31
2019-03-21T14:59:42.038Z,100337.66
2019-03-21T15:02:09.743Z,100174.37
2019-03-21T15:04:37.009Z,100329.38
2019-03-21T15:07:05.554Z,100338.70
2019-03-21T15:09:34.173Z,100349.98
2019-03-21T15:12:01.670Z,100338.80
2019-03-21T15:14:32.134Z,100340.48
2019-03-21T15:16:59.564Z,100329.27
2019-03-21T15:19:26.900Z,100352.02
2019-03-21T15:21:56.754Z,100328.66
2019-03-21T15:24:26.076Z,100322.44
2019-03-21T15:26:53.348Z,100321.98
2019-03-21T15:29:21.152Z,100332.03
2019-03-21T15:31:48.842Z,100326.95
2019-03-21T15:34:17.018Z,100326.39
2019-03-21T15:36:47.275Z,100334.91
2019-03-21T15:39:14.724Z,100327.46
2019-03-21T15:41:41.997Z,100358.69
2019-03-21T15:44:09.313Z,100315.34
2019-03-21T15:46:37.182Z,100321.09
2019-03-21T15:49:04.671Z,100319.30
2019-03-21T15:51:32.196Z,100312.41
2019-03-21T15:53:59.506Z,100313.11
2019-03-21T15:56:26.780Z,100314.38
2019-03-21T15:58:54.377Z,100310.52
2019-03-21T16:01:21.834Z,100315.33
2019-03-21T16:03:49.227Z,100311.31
2019-03-21T16:06:16.793Z,100306.36
2019-03-21T16:08:44.121Z,100306.13
2019-03-21T16:11:12.506Z,100307.53
2019-03-21T16:13:39.992Z,100315.23
2019-03-21T16:16:07.559Z,100302.64
2019-03-21T16:18:35.039Z,100308.27
2019-03-21T16:21:02.726Z,100298.40
2019-03-21T16:23:30.324Z,100323.84
2019-03-21T16:25:58.684Z,100324.87
2019-03-21T16:28:26.430Z,100300.84
2019-03-21T16:30:54.114Z,100302.46
2019-03-21T16:33:21.546Z,100301.91
2019-03-21T16:35:49.228Z,100308.33
2019-03-21T16:38:16.548Z,100303.25
2019-03-21T16:40:43.883Z,100308.61
2019-03-21T16:43:16.077Z,100301.67
2019-03-21T16:45:43.537Z,100304.34
2019-03-21T16:48:10.894Z,100302.72
2019-03-21T16:50:38.299Z,100304.58
2019-03-21T16:53:09.108Z,100300.33
2019-03-21T16:55:36.765Z,100302.73
2019-03-21T16:58:04.156Z,100308.05
2019-03-21T17:00:31.547Z,100312.08
2019-03-21T17:02:58.830Z,100305.92
2019-03-21T17:05:26.106Z,100300.58
2019-03-21T17:07:55.643Z,100305.16
2019-03-21T17:10:23.978Z,100308.32
2019-03-21T17:12:51.342Z,100312.84
2019-03-21T17:15:18.794Z,100305.64
2019-03-21T17:17:46.024Z,100314.70
2019-03-21T17:20:14.423Z,100312.05
2019-03-21T17:22:41.869Z,100310.43
2019-03-21T17:25:09.188Z,100311.75
2019-03-21T17:27:36.671Z,100314.16
2019-03-21T17:30:05.147Z,100314.95
2019-03-21T17:32:32.696Z,100312.56
2019-03-21T17:35:00.544Z,100317.35
2019-03-21T17:37:27.888Z,100313.86
2019-03-21T17:39:55.609Z,100346.34
2019-03-21T17:42:23.326Z,100349.84
2019-03-21T17:44:50.721Z,100320.24
2019-03-21T17:47:18.169Z,100323.91
2019-03-21T17:49:45.699Z,100331.09
2019-03-21T17:52:13.361Z,100322.56
2019-03-21T17:54:41.891Z,100327.63
2019-03-21T17:57:09.747Z,100319.09
2019-03-21T17:59:40.456Z,100328.65
2019-03-21T18:02:07.970Z,100324.64
2019-03-21T18:04:35.888Z,100367.77
2019-03-21T18:07:03.488Z,100326.97
2019-03-21T18:09:31.133Z,100337.09
2019-03-21T18:11:58.386Z,100333.88
2019-03-21T18:14:28.596Z,100335.19
2019-03-21T18:16:55.909Z,100335.94
2019-03-21T18:19:26.260Z,100328.47
2019-03-21T18:21:53.911Z,100331.92
2019-03-21T18:24:27.302Z,100354.73
2019-03-21T18:26:59.770Z,100335.73
2019-03-21T18:29:29.492Z,100336.47
2019-03-21T18:31:56.767Z,100349.72
2019-03-21T18:34:24.275Z,100328.39
2019-03-21T18:36:51.749Z,100339.80
2019-03-21T18:39:19.494Z,100341.45
2019-03-21T18:41:46.951Z,100343.54
2019-03-21T18:44:14.278Z,100351.59
2019-03-21T18:46:41.784Z,100350.47
2019-03-21T18:49:09.157Z,100355.42
2019-03-21T18:51:36.471Z,100352.00
2019-03-21T18:54:03.735Z,100356.41
2019-03-21T18:56:30.995Z,100360.00
2019-03-21T18:58:58.373Z,100378.20
2019-03-21T19:01:25.797Z,100374.43
2019-03-21T19:03:55.667Z,100367.27
2019-03-21T19:06:22.963Z,100363.72
2019-03-21T19:08:50.249Z,100358.77
2019-03-21T19:11:18.107Z,100366.48
2019-03-21T19:13:45.559Z,100369.05
2019-03-21T19:16:12.981Z,100369.52
2019-03-21T19:18:42.487Z,100419.09
2019-03-21T19:21:09.811Z,100377.56
2019-03-21T19:23:37.454Z,100375.38
2019-03-21T19:26:05.222Z,100372.89
2019-03-21T19:28:32.757Z,100368.16
2019-03-21T19:31:00.100Z,100371.25
2019-03-21T19:33:29.526Z,100371.04
2019-03-21T19:35:57.137Z,100380.37
2019-03-21T19:38:29.122Z,100373.47
2019-03-21T19:40:58.481Z,100416.98
2019-03-21T19:43:30.848Z,100377.32
2019-03-21T19:45:58.075Z,100379.33
2019-03-21T19:48:27.956Z,100379.59
2019-03-21T19:50:55.225Z,100393.03
2019-03-21T19:53:22.539Z,100376.89
2019-03-21T19:55:54.789Z,100373.11
2019-03-21T19:58:22.136Z,100375.14
2019-03-21T20:00:49.426Z,100380.33
2019-03-21T20:03:16.774Z,100374.57
2019-03-21T20:05:44.274Z,100376.16
2019-03-21T20:08:11.911Z,100382.33
2019-03-21T20:10:40.230Z,100387.68
2019-03-21T20:13:10.358Z,100390.95
2019-03-21T20:15:41.697Z,100383.71
2019-03-21T20:18:10.200Z,100395.10
2019-03-21T20:20:37.907Z,100393.59
2019-03-21T20:23:05.409Z,100383.81
2019-03-21T20:25:42.358Z,100383.48
2019-03-21T20:28:02.048Z,100423.44
2019-03-21T20:30:29.438Z,100401.50
2019-03-21T20:32:58.188Z,100413.77
2019-03-21T20:35:31.475Z,100380.08
2019-03-21T20:38:05.464Z,100385.14
2019-03-21T20:40:33.200Z,100426.72
2019-03-21T20:43:03.016Z,100387.22
2019-03-21T20:45:31.111Z,100385.73
2019-03-21T20:47:58.579Z,100387.38
2019-03-21T20:50:26.252Z,100428.92
2019-03-21T20:52:58.426Z,100428.16
2019-03-21T20:55:26.270Z,100422.02
2019-03-21T20:57:54.408Z,100385.69
2019-03-21T21:00:25.518Z,100392.02
2019-03-21T21:02:53.276Z,100392.59
2019-03-21T21:05:22.908Z,100420.31
2019-03-21T21:07:49.885Z,100387.20
2019-03-21T21:10:19.938Z,100382.93
2019-03-21T21:12:47.228Z,100406.91
2019-03-21T21:15:14.529Z,100383.82
2019-03-21T21:17:43.103Z,100385.29
2019-03-21T21:20:10.834Z,100419.90
2019-03-21T21:22:38.778Z,100394.44
2019-03-21T21:25:06.434Z,100385.86
2019-03-21T21:27:33.837Z,100391.65
2019-03-21T21:30:01.224Z,100396.06
2019-03-21T21:32:28.534Z,100394.97
2019-03-21T21:34:55.922Z,100394.52
2019-03-21T21:37:23.649Z,100392.70
2019-03-21T21:39:51.090Z,100386.36
2019-03-21T21:42:18.672Z,100386.73
2019-03-21T21:44:45.922Z,100389.84
2019-03-21T21:47:16.424Z,100390.23
2019-03-21T21:49:43.932Z,100386.61
2019-03-21T21:52:11.214Z,100391.27
2019-03-21T21:54:38.507Z,100406.52
2019-03-21T21:57:06.002Z,100391.95
2019-03-21T21:59:33.316Z,100389.80
2019-03-21T22:02:00.996Z,100395.11
2019-03-21T22:04:28.402Z,100384.36
2019-03-21T22:06:55.692Z,100383.90
2019-03-21T22:09:23.328Z,100390.70
2019-03-21T22:11:50.636Z,100386.91
2019-03-21T22:14:17.902Z,100388.48
2019-03-21T22:16:48.111Z,100387.42
2019-03-21T22:19:15.624Z,100393.83
2019-03-21T22:21:42.997Z,100390.73
2019-03-21T22:24:13.607Z,100390.19
2019-03-21T22:26:40.204Z,100402.52
2019-03-21T22:29:07.536Z,100395.34
2019-03-21T22:31:37.827Z,100387.44
2019-03-21T22:34:05.155Z,100384.18
2019-03-21T22:36:32.542Z,100378.64
2019-03-21T22:38:59.930Z,100375.19
2019-03-21T22:41:27.321Z,100381.10
2019-03-21T22:43:54.857Z,100378.57
2019-03-21T22:46:24.028Z,100379.81
2019-03-21T22:48:51.330Z,100381.75
2019-03-21T22:51:18.641Z,100379.69
2019-03-21T22:53:46.068Z,100376.87
2019-03-21T22:56:13.336Z,100367.42
2019-03-21T22:58:40.730Z,100365.98
2019-03-21T23:01:08.108Z,100370.57
2019-03-21T23:03:35.430Z,100370.67
2019-03-21T23:06:02.730Z,100370.79
2019-03-21T23:08:31.708Z,100366.25
2019-03-21T23:10:59.334Z,100365.06
2019-03-21T23:13:26.774Z,100358.87
2019-03-21T23:15:54.290Z,100353.37
2019-03-21T23:18:21.578Z,100349.30
2019-03-21T23:20:48.993Z,100348.39
2019-03-21T23:23:16.281Z,100345.97
2019-03-21T23:25:44.109Z,100356.50
2019-03-21T23:28:13.362Z,100346.50
2019-03-21T23:30:40.654Z,100333.97
2019-03-21T23:33:08.031Z,100338.01
2019-03-21T23:35:35.293Z,100340.25
2019-03-21T23:38:02.561Z,100341.56
2019-03-21T23:40:31.555Z,100343.98
2019-03-21T23:42:58.825Z,100339.34
2019-03-21T23:45:26.088Z,100336.11
2019-03-21T23:47:53.323Z,100330.86
2019-03-21T23:50:21.403Z,100330.96
2019-03-21T23:52:49.450Z,100327.13
2019-03-21T23:55:16.837Z,100325.11
2019-03-21T23:57:44.133Z,100317.84
